sensor_id;sensor_type;location;lat;lon;timestamp;temperature;humidity
49224;DHT22;35050;51.316;5.994;2022-12-17T00:02:22;1.90;99.90
49224;DHT22;35050;51.316;5.994;2022-12-17T00:05:07;1.90;99.90
49224;DHT22;35050;51.316;5.994;2022-12-17T00:07:58;1.90;99.90
49224;DHT22;35050;51.316;5.994;2022-12-17T00:10:43;1.80;99.90
49224;DHT22;35050;51.316;5.994;2022-12-17T00:13:27;1.80;99.90
49224;DHT22;35050;51.316;5.994;2022-12-17T00:16:11;1.80;99.90
49224;DHT22;35050;51.316;5.994;2022-12-17T00:18:56;1.90;99.90
49224;DHT22;35050;51.316;5.994;2022-12-17T00:21:40;1.90;99.90
49224;DHT22;35050;51.316;5.994;2022-12-17T00:24:24;1.90;99.90
49224;DHT22;35050;51.316;5.994;2022-12-17T00:27:08;1.90;99.90
49224;DHT22;35050;51.316;5.994;2022-12-17T00:30:09;1.90;99.90
49224;DHT22;35050;51.316;5.994;2022-12-17T00:32:53;1.90;99.90
49224;DHT22;35050;51.316;5.994;2022-12-17T00:35:38;1.90;99.90
49224;DHT22;35050;51.316;5.994;2022-12-17T00:38:22;2.00;99.90
49224;DHT22;35050;51.316;5.994;2022-12-17T00:41:06;2.00;99.90
49224;DHT22;35050;51.316;5.994;2022-12-17T00:43:50;2.00;99.90
49224;DHT22;35050;51.316;5.994;2022-12-17T00:46:34;1.90;99.90
49224;DHT22;35050;51.316;5.994;2022-12-17T00:49:18;2.00;99.90
49224;DHT22;35050;51.316;5.994;2022-12-17T00:52:02;2.00;99.90
49224;DHT22;35050;51.316;5.994;2022-12-17T00:54:46;1.90;99.90
49224;DHT22;35050;51.316;5.994;2022-12-17T00:57:30;1.80;99.90
49224;DHT22;35050;51.316;5.994;2022-12-17T01:00:14;1.90;99.90
49224;DHT22;35050;51.316;5.994;2022-12-17T01:03:06;1.60;99.90
49224;DHT22;35050;51.316;5.994;2022-12-17T01:06:04;1.80;99.90
49224;DHT22;35050;51.316;5.994;2022-12-17T01:08:49;1.80;99.90
49224;DHT22;35050;51.316;5.994;2022-12-17T01:11:33;1.80;99.90
49224;DHT22;35050;51.316;5.994;2022-12-17T01:14:17;1.90;99.90
49224;DHT22;35050;51.316;5.994;2022-12-17T01:17:02;1.90;99.90
49224;DHT22;35050;51.316;5.994;2022-12-17T01:19:46;1.80;99.90
49224;DHT22;35050;51.316;5.994;2022-12-17T01:22:30;1.70;99.90
49224;DHT22;35050;51.316;5.994;2022-12-17T01:25:14;1.70;99.90
49224;DHT22;35050;51.316;5.994;2022-12-17T01:27:58;1.80;99.90
49224;DHT22;35050;51.316;5.994;2022-12-17T01:30:42;1.80;99.90
49224;DHT22;35050;51.316;5.994;2022-12-17T01:33:26;1.80;99.90
49224;DHT22;35050;51.316;5.994;2022-12-17T01:36:10;1.80;99.90
49224;DHT22;35050;51.316;5.994;2022-12-17T01:38:54;1.80;99.90
49224;DHT22;35050;51.316;5.994;2022-12-17T01:41:39;1.90;99.90
49224;DHT22;35050;51.316;5.994;2022-12-17T01:47:24;1.90;99.90
49224;DHT22;35050;51.316;5.994;2022-12-17T01:50:09;1.80;99.90
49224;DHT22;35050;51.316;5.994;2022-12-17T01:52:56;1.90;99.90
49224;DHT22;35050;51.316;5.994;2022-12-17T01:55:42;1.80;99.90
49224;DHT22;35050;51.316;5.994;2022-12-17T01:58:27;1.80;99.90
49224;DHT22;35050;51.316;5.994;2022-12-17T02:01:12;1.60;99.90
49224;DHT22;35050;51.316;5.994;2022-12-17T02:03:56;1.70;99.90
49224;DHT22;35050;51.316;5.994;2022-12-17T02:06:46;1.80;99.90
49224;DHT22;35050;51.316;5.994;2022-12-17T02:09:44;1.80;99.90
49224;DHT22;35050;51.316;5.994;2022-12-17T02:12:36;1.70;99.90
49224;DHT22;35050;51.316;5.994;2022-12-17T02:18:26;1.80;99.90
49224;DHT22;35050;51.316;5.994;2022-12-17T02:21:12;1.80;99.90
49224;DHT22;35050;51.316;5.994;2022-12-17T02:24:06;1.80;99.90
49224;DHT22;35050;51.316;5.994;2022-12-17T02:26:58;1.70;99.90
49224;DHT22;35050;51.316;5.994;2022-12-17T02:29:48;1.70;99.90
49224;DHT22;35050;51.316;5.994;2022-12-17T02:32:34;1.80;99.90
49224;DHT22;35050;51.316;5.994;2022-12-17T02:35:24;1.70;99.90
49224;DHT22;35050;51.316;5.994;2022-12-17T02:38:21;1.90;99.90
49224;DHT22;35050;51.316;5.994;2022-12-17T02:41:07;1.80;99.90
49224;DHT22;35050;51.316;5.994;2022-12-17T02:43:53;1.70;99.90
49224;DHT22;35050;51.316;5.994;2022-12-17T02:46:40;1.80;99.90
49224;DHT22;35050;51.316;5.994;2022-12-17T02:49:24;1.70;99.90
49224;DHT22;35050;51.316;5.994;2022-12-17T02:52:09;1.70;99.90
49224;DHT22;35050;51.316;5.994;2022-12-17T02:54:53;1.80;99.90
49224;DHT22;35050;51.316;5.994;2022-12-17T02:57:37;1.50;99.90
49224;DHT22;35050;51.316;5.994;2022-12-17T03:00:21;1.50;99.90
49224;DHT22;35050;51.316;5.994;2022-12-17T03:03:05;1.60;99.90
49224;DHT22;35050;51.316;5.994;2022-12-17T03:05:49;1.70;99.90
49224;DHT22;35050;51.316;5.994;2022-12-17T03:08:34;1.80;99.90
49224;DHT22;35050;51.316;5.994;2022-12-17T03:11:18;1.80;99.90
49224;DHT22;35050;51.316;5.994;2022-12-17T03:14:02;1.90;99.90
49224;DHT22;35050;51.316;5.994;2022-12-17T03:16:46;1.80;99.90
49224;DHT22;35050;51.316;5.994;2022-12-17T03:19:31;1.80;99.90
49224;DHT22;35050;51.316;5.994;2022-12-17T03:22:15;1.70;99.90
49224;DHT22;35050;51.316;5.994;2022-12-17T03:24:59;1.80;99.90
49224;DHT22;35050;51.316;5.994;2022-12-17T03:27:43;1.80;99.90
49224;DHT22;35050;51.316;5.994;2022-12-17T03:30:27;1.80;99.90
49224;DHT22;35050;51.316;5.994;2022-12-17T03:33:11;1.80;99.90
49224;DHT22;35050;51.316;5.994;2022-12-17T03:35:56;1.80;99.90
49224;DHT22;35050;51.316;5.994;2022-12-17T03:38:40;1.60;99.90
49224;DHT22;35050;51.316;5.994;2022-12-17T03:41:24;1.70;99.90
49224;DHT22;35050;51.316;5.994;2022-12-17T03:44:08;1.80;99.90
49224;DHT22;35050;51.316;5.994;2022-12-17T03:46:52;1.70;99.90
49224;DHT22;35050;51.316;5.994;2022-12-17T03:49:36;1.60;99.90
49224;DHT22;35050;51.316;5.994;2022-12-17T03:52:20;1.70;99.90
49224;DHT22;35050;51.316;5.994;2022-12-17T03:55:04;1.70;99.90
49224;DHT22;35050;51.316;5.994;2022-12-17T03:57:49;1.70;99.90
49224;DHT22;35050;51.316;5.994;2022-12-17T04:00:33;1.70;99.90
49224;DHT22;35050;51.316;5.994;2022-12-17T04:03:17;1.50;99.90
49224;DHT22;35050;51.316;5.994;2022-12-17T04:06:01;1.40;99.90
49224;DHT22;35050;51.316;5.994;2022-12-17T04:08:45;1.40;99.90
49224;DHT22;35050;51.316;5.994;2022-12-17T04:11:29;1.50;99.90
49224;DHT22;35050;51.316;5.994;2022-12-17T04:14:13;1.40;99.90
49224;DHT22;35050;51.316;5.994;2022-12-17T04:16:57;1.40;99.90
49224;DHT22;35050;51.316;5.994;2022-12-17T04:19:41;1.50;99.90
49224;DHT22;35050;51.316;5.994;2022-12-17T04:22:25;1.60;99.90
49224;DHT22;35050;51.316;5.994;2022-12-17T04:25:09;1.70;99.90
49224;DHT22;35050;51.316;5.994;2022-12-17T04:27:53;1.60;99.90
49224;DHT22;35050;51.316;5.994;2022-12-17T04:30:37;1.50;99.90
49224;DHT22;35050;51.316;5.994;2022-12-17T04:33:21;1.30;99.90
49224;DHT22;35050;51.316;5.994;2022-12-17T04:36:05;1.50;99.90
49224;DHT22;35050;51.316;5.994;2022-12-17T04:38:49;1.30;99.90
49224;DHT22;35050;51.316;5.994;2022-12-17T04:41:33;1.30;99.90
49224;DHT22;35050;51.316;5.994;2022-12-17T04:44:17;1.50;99.90
49224;DHT22;35050;51.316;5.994;2022-12-17T04:47:01;1.40;99.90
49224;DHT22;35050;51.316;5.994;2022-12-17T04:49:45;1.50;99.90
49224;DHT22;35050;51.316;5.994;2022-12-17T04:52:29;1.60;99.90
49224;DHT22;35050;51.316;5.994;2022-12-17T04:55:14;1.60;99.90
49224;DHT22;35050;51.316;5.994;2022-12-17T04:58:05;1.30;99.90
49224;DHT22;35050;51.316;5.994;2022-12-17T05:00:54;1.30;99.90
49224;DHT22;35050;51.316;5.994;2022-12-17T05:03:39;1.40;99.90
49224;DHT22;35050;51.316;5.994;2022-12-17T05:06:24;1.50;99.90
49224;DHT22;35050;51.316;5.994;2022-12-17T05:09:08;1.40;99.90
49224;DHT22;35050;51.316;5.994;2022-12-17T05:11:52;1.50;99.90
49224;DHT22;35050;51.316;5.994;2022-12-17T05:14:36;1.50;99.90
49224;DHT22;35050;51.316;5.994;2022-12-17T05:17:20;1.40;99.90
49224;DHT22;35050;51.316;5.994;2022-12-17T05:20:04;1.30;99.90
49224;DHT22;35050;51.316;5.994;2022-12-17T05:22:49;1.40;99.90
49224;DHT22;35050;51.316;5.994;2022-12-17T05:25:33;1.40;99.90
49224;DHT22;35050;51.316;5.994;2022-12-17T05:28:17;1.50;99.90
49224;DHT22;35050;51.316;5.994;2022-12-17T05:31:01;1.30;99.90
49224;DHT22;35050;51.316;5.994;2022-12-17T05:33:45;1.20;99.90
49224;DHT22;35050;51.316;5.994;2022-12-17T05:36:29;1.40;99.90
49224;DHT22;35050;51.316;5.994;2022-12-17T05:39:13;1.30;99.90
49224;DHT22;35050;51.316;5.994;2022-12-17T05:41:58;1.20;99.90
49224;DHT22;35050;51.316;5.994;2022-12-17T05:44:42;1.20;99.90
49224;DHT22;35050;51.316;5.994;2022-12-17T05:47:26;1.30;99.90
49224;DHT22;35050;51.316;5.994;2022-12-17T05:50:10;1.40;99.90
49224;DHT22;35050;51.316;5.994;2022-12-17T05:53:03;1.30;99.90
49224;DHT22;35050;51.316;5.994;2022-12-17T05:55:51;1.20;99.90
49224;DHT22;35050;51.316;5.994;2022-12-17T05:58:36;1.30;99.90
49224;DHT22;35050;51.316;5.994;2022-12-17T06:01:20;1.40;99.90
49224;DHT22;35050;51.316;5.994;2022-12-17T06:04:04;1.40;99.90
49224;DHT22;35050;51.316;5.994;2022-12-17T06:06:49;1.40;99.90
49224;DHT22;35050;51.316;5.994;2022-12-17T06:09:33;1.40;99.90
49224;DHT22;35050;51.316;5.994;2022-12-17T06:12:17;1.40;99.90
49224;DHT22;35050;51.316;5.994;2022-12-17T06:15:01;1.30;99.90
49224;DHT22;35050;51.316;5.994;2022-12-17T06:17:53;1.40;99.90
49224;DHT22;35050;51.316;5.994;2022-12-17T06:20:37;1.30;99.90
49224;DHT22;35050;51.316;5.994;2022-12-17T06:23:21;1.30;99.90
49224;DHT22;35050;51.316;5.994;2022-12-17T06:26:05;1.30;99.90
49224;DHT22;35050;51.316;5.994;2022-12-17T06:28:49;1.10;99.90
49224;DHT22;35050;51.316;5.994;2022-12-17T06:31:33;1.10;99.90
49224;DHT22;35050;51.316;5.994;2022-12-17T06:34:18;1.10;99.90
49224;DHT22;35050;51.316;5.994;2022-12-17T06:37:02;1.20;99.90
49224;DHT22;35050;51.316;5.994;2022-12-17T06:39:46;1.20;99.90
49224;DHT22;35050;51.316;5.994;2022-12-17T06:42:30;1.20;99.90
49224;DHT22;35050;51.316;5.994;2022-12-17T06:45:14;1.20;99.90
49224;DHT22;35050;51.316;5.994;2022-12-17T06:48:07;1.10;99.90
49224;DHT22;35050;51.316;5.994;2022-12-17T06:50:54;1.60;99.90
49224;DHT22;35050;51.316;5.994;2022-12-17T06:53:39;1.40;99.90
49224;DHT22;35050;51.316;5.994;2022-12-17T06:56:23;1.20;99.90
49224;DHT22;35050;51.316;5.994;2022-12-17T06:59:07;1.30;99.90
49224;DHT22;35050;51.316;5.994;2022-12-17T07:01:52;1.20;99.90
49224;DHT22;35050;51.316;5.994;2022-12-17T07:04:36;1.20;99.90
49224;DHT22;35050;51.316;5.994;2022-12-17T07:07:20;1.20;99.90
49224;DHT22;35050;51.316;5.994;2022-12-17T07:10:04;0.80;99.90
49224;DHT22;35050;51.316;5.994;2022-12-17T07:12:48;1.00;99.90
49224;DHT22;35050;51.316;5.994;2022-12-17T07:15:32;1.10;99.90
49224;DHT22;35050;51.316;5.994;2022-12-17T07:18:17;0.90;99.90
49224;DHT22;35050;51.316;5.994;2022-12-17T07:21:01;0.80;99.90
49224;DHT22;35050;51.316;5.994;2022-12-17T07:23:45;0.70;99.90
49224;DHT22;35050;51.316;5.994;2022-12-17T07:26:30;0.60;99.90
49224;DHT22;35050;51.316;5.994;2022-12-17T07:29:14;0.70;99.90
49224;DHT22;35050;51.316;5.994;2022-12-17T07:31:59;0.70;99.90
49224;DHT22;35050;51.316;5.994;2022-12-17T07:34:43;0.70;99.90
49224;DHT22;35050;51.316;5.994;2022-12-17T07:37:27;0.80;99.90
49224;DHT22;35050;51.316;5.994;2022-12-17T07:40:11;0.90;99.90
49224;DHT22;35050;51.316;5.994;2022-12-17T07:42:55;1.00;99.90
49224;DHT22;35050;51.316;5.994;2022-12-17T07:45:39;0.60;99.90
49224;DHT22;35050;51.316;5.994;2022-12-17T07:48:23;0.90;99.90
49224;DHT22;35050;51.316;5.994;2022-12-17T07:51:07;0.90;99.90
49224;DHT22;35050;51.316;5.994;2022-12-17T07:53:51;0.90;99.90
49224;DHT22;35050;51.316;5.994;2022-12-17T07:56:36;0.90;99.90
49224;DHT22;35050;51.316;5.994;2022-12-17T07:59:20;0.90;99.90
49224;DHT22;35050;51.316;5.994;2022-12-17T08:02:04;0.90;99.90
49224;DHT22;35050;51.316;5.994;2022-12-17T08:04:48;1.00;99.90
49224;DHT22;35050;51.316;5.994;2022-12-17T08:07:32;1.10;99.90
49224;DHT22;35050;51.316;5.994;2022-12-17T08:10:16;1.10;99.90
49224;DHT22;35050;51.316;5.994;2022-12-17T08:13:03;1.00;99.90
49224;DHT22;35050;51.316;5.994;2022-12-17T08:15:47;1.10;99.90
49224;DHT22;35050;51.316;5.994;2022-12-17T08:18:32;1.10;99.90
49224;DHT22;35050;51.316;5.994;2022-12-17T08:21:17;1.00;99.90
49224;DHT22;35050;51.316;5.994;2022-12-17T08:24:01;0.80;99.90
49224;DHT22;35050;51.316;5.994;2022-12-17T08:26:45;0.80;99.90
49224;DHT22;35050;51.316;5.994;2022-12-17T08:29:29;0.70;99.90
49224;DHT22;35050;51.316;5.994;2022-12-17T08:32:14;0.80;99.90
49224;DHT22;35050;51.316;5.994;2022-12-17T08:34:58;0.90;99.90
49224;DHT22;35050;51.316;5.994;2022-12-17T08:37:42;0.70;99.90
49224;DHT22;35050;51.316;5.994;2022-12-17T08:40:26;1.00;99.90
49224;DHT22;35050;51.316;5.994;2022-12-17T08:43:11;0.90;99.90
49224;DHT22;35050;51.316;5.994;2022-12-17T08:45:55;0.80;99.90
49224;DHT22;35050;51.316;5.994;2022-12-17T08:48:39;0.70;99.90
49224;DHT22;35050;51.316;5.994;2022-12-17T08:51:24;0.80;99.90
49224;DHT22;35050;51.316;5.994;2022-12-17T08:54:08;0.80;99.90
49224;DHT22;35050;51.316;5.994;2022-12-17T08:56:53;0.60;99.90
49224;DHT22;35050;51.316;5.994;2022-12-17T08:59:37;0.60;99.90
49224;DHT22;35050;51.316;5.994;2022-12-17T09:02:22;0.60;99.90
49224;DHT22;35050;51.316;5.994;2022-12-17T09:05:07;0.50;99.90
49224;DHT22;35050;51.316;5.994;2022-12-17T09:08:02;0.60;99.90
49224;DHT22;35050;51.316;5.994;2022-12-17T09:10:46;0.60;99.90
49224;DHT22;35050;51.316;5.994;2022-12-17T09:13:31;0.60;99.90
49224;DHT22;35050;51.316;5.994;2022-12-17T09:16:15;0.50;99.90
49224;DHT22;35050;51.316;5.994;2022-12-17T09:18:59;0.40;99.90
49224;DHT22;35050;51.316;5.994;2022-12-17T09:21:44;0.30;99.90
49224;DHT22;35050;51.316;5.994;2022-12-17T09:24:28;0.40;99.90
49224;DHT22;35050;51.316;5.994;2022-12-17T09:27:13;0.40;99.90
49224;DHT22;35050;51.316;5.994;2022-12-17T09:29:57;0.60;99.90
49224;DHT22;35050;51.316;5.994;2022-12-17T09:32:41;0.90;99.90
49224;DHT22;35050;51.316;5.994;2022-12-17T09:35:25;0.90;99.90
49224;DHT22;35050;51.316;5.994;2022-12-17T09:38:13;0.60;99.90
49224;DHT22;35050;51.316;5.994;2022-12-17T09:41:12;0.50;99.90
49224;DHT22;35050;51.316;5.994;2022-12-17T09:44:13;0.70;99.90
49224;DHT22;35050;51.316;5.994;2022-12-17T09:47:29;0.90;99.90
49224;DHT22;35050;51.316;5.994;2022-12-17T09:50:14;0.80;99.90
49224;DHT22;35050;51.316;5.994;2022-12-17T09:53:01;1.00;99.90
49224;DHT22;35050;51.316;5.994;2022-12-17T09:55:49;1.00;99.90
49224;DHT22;35050;51.316;5.994;2022-12-17T09:58:38;0.70;99.90
49224;DHT22;35050;51.316;5.994;2022-12-17T10:01:26;0.60;99.90
49224;DHT22;35050;51.316;5.994;2022-12-17T10:04:14;0.60;99.90
49224;DHT22;35050;51.316;5.994;2022-12-17T10:07:00;0.70;99.90
49224;DHT22;35050;51.316;5.994;2022-12-17T10:09:49;0.40;99.90
49224;DHT22;35050;51.316;5.994;2022-12-17T10:12:34;0.60;99.90
49224;DHT22;35050;51.316;5.994;2022-12-17T10:15:18;0.70;99.90
49224;DHT22;35050;51.316;5.994;2022-12-17T10:18:08;0.90;99.90
49224;DHT22;35050;51.316;5.994;2022-12-17T10:20:59;1.00;99.90
49224;DHT22;35050;51.316;5.994;2022-12-17T10:23:44;1.10;99.90
49224;DHT22;35050;51.316;5.994;2022-12-17T10:26:31;1.00;99.90
49224;DHT22;35050;51.316;5.994;2022-12-17T10:29:22;0.90;99.90
49224;DHT22;35050;51.316;5.994;2022-12-17T10:37:52;1.30;99.90
49224;DHT22;35050;51.316;5.994;2022-12-17T10:40:36;1.20;99.90
49224;DHT22;35050;51.316;5.994;2022-12-17T10:43:36;1.40;99.90
49224;DHT22;35050;51.316;5.994;2022-12-17T10:46:29;1.30;99.90
49224;DHT22;35050;51.316;5.994;2022-12-17T10:49:16;1.20;99.90
49224;DHT22;35050;51.316;5.994;2022-12-17T10:52:14;1.30;99.90
49224;DHT22;35050;51.316;5.994;2022-12-17T10:55:04;1.30;99.90
49224;DHT22;35050;51.316;5.994;2022-12-17T10:57:50;1.10;99.90
49224;DHT22;35050;51.316;5.994;2022-12-17T11:00:43;2.00;99.90
49224;DHT22;35050;51.316;5.994;2022-12-17T11:03:47;1.20;99.90
49224;DHT22;35050;51.316;5.994;2022-12-17T11:12:12;1.20;99.90
49224;DHT22;35050;51.316;5.994;2022-12-17T11:15:02;1.20;99.90
49224;DHT22;35050;51.316;5.994;2022-12-17T11:17:47;1.30;99.90
49224;DHT22;35050;51.316;5.994;2022-12-17T11:20:49;1.10;99.90
49224;DHT22;35050;51.316;5.994;2022-12-17T11:23:36;0.70;99.90
49224;DHT22;35050;51.316;5.994;2022-12-17T11:26:24;0.80;99.90
49224;DHT22;35050;51.316;5.994;2022-12-17T11:29:12;0.90;99.90
49224;DHT22;35050;51.316;5.994;2022-12-17T11:32:13;0.90;99.90
49224;DHT22;35050;51.316;5.994;2022-12-17T11:50:50;1.10;99.90
49224;DHT22;35050;51.316;5.994;2022-12-17T11:56:37;0.90;99.90
49224;DHT22;35050;51.316;5.994;2022-12-17T11:59:33;0.80;99.90
49224;DHT22;35050;51.316;5.994;2022-12-17T12:05:59;1.10;99.90
49224;DHT22;35050;51.316;5.994;2022-12-17T12:12:05;0.90;99.90
49224;DHT22;35050;51.316;5.994;2022-12-17T12:15:16;1.10;99.90
49224;DHT22;35050;51.316;5.994;2022-12-17T12:27:11;0.80;99.90
49224;DHT22;35050;51.316;5.994;2022-12-17T12:30:01;0.90;99.90
49224;DHT22;35050;51.316;5.994;2022-12-17T12:36:00;0.90;99.90
49224;DHT22;35050;51.316;5.994;2022-12-17T12:38:53;1.00;99.90
49224;DHT22;35050;51.316;5.994;2022-12-17T12:41:46;1.00;99.90
49224;DHT22;35050;51.316;5.994;2022-12-17T12:44:33;1.00;99.90
49224;DHT22;35050;51.316;5.994;2022-12-17T12:47:50;1.20;99.90
49224;DHT22;35050;51.316;5.994;2022-12-17T12:50:57;0.80;99.90
49224;DHT22;35050;51.316;5.994;2022-12-17T12:53:42;0.80;99.90
49224;DHT22;35050;51.316;5.994;2022-12-17T12:56:35;0.60;99.90
49224;DHT22;35050;51.316;5.994;2022-12-17T12:59:31;0.70;99.90
49224;DHT22;35050;51.316;5.994;2022-12-17T13:05:04;0.80;99.90
49224;DHT22;35050;51.316;5.994;2022-12-17T13:08:24;1.00;99.90
49224;DHT22;35050;51.316;5.994;2022-12-17T13:10:51;0.70;99.90
49224;DHT22;35050;51.316;5.994;2022-12-17T13:15:47;0.80;99.90
49224;DHT22;35050;51.316;5.994;2022-12-17T13:18:32;0.80;99.90
49224;DHT22;35050;51.316;5.994;2022-12-17T13:21:04;0.70;99.90
49224;DHT22;35050;51.316;5.994;2022-12-17T13:23:35;0.80;99.90
49224;DHT22;35050;51.316;5.994;2022-12-17T13:26:30;0.50;99.90
49224;DHT22;35050;51.316;5.994;2022-12-17T13:29:21;0.60;99.90
49224;DHT22;35050;51.316;5.994;2022-12-17T13:35:14;0.80;99.90
49224;DHT22;35050;51.316;5.994;2022-12-17T13:43:20;0.50;99.90
49224;DHT22;35050;51.316;5.994;2022-12-17T13:45:46;0.20;99.90
49224;DHT22;35050;51.316;5.994;2022-12-17T13:48:30;0.30;99.90
49224;DHT22;35050;51.316;5.994;2022-12-17T13:51:03;0.30;99.90
49224;DHT22;35050;51.316;5.994;2022-12-17T13:53:30;0.30;99.90
49224;DHT22;35050;51.316;5.994;2022-12-17T13:55:59;0.10;99.90
49224;DHT22;35050;51.316;5.994;2022-12-17T13:58:27;0.20;99.90
49224;DHT22;35050;51.316;5.994;2022-12-17T14:03:29;0.10;99.90
49224;DHT22;35050;51.316;5.994;2022-12-17T14:05:56;0.00;99.90
49224;DHT22;35050;51.316;5.994;2022-12-17T14:08:25;0.30;99.90
49224;DHT22;35050;51.316;5.994;2022-12-17T14:10:53;0.40;99.90
49224;DHT22;35050;51.316;5.994;2022-12-17T14:13:41;0.30;99.90
49224;DHT22;35050;51.316;5.994;2022-12-17T14:16:07;0.40;99.90
49224;DHT22;35050;51.316;5.994;2022-12-17T14:18:33;0.40;99.90
49224;DHT22;35050;51.316;5.994;2022-12-17T14:20:59;0.40;99.90
49224;DHT22;35050;51.316;5.994;2022-12-17T14:23:29;1.00;99.90
49224;DHT22;35050;51.316;5.994;2022-12-17T14:25:56;0.40;99.90
49224;DHT22;35050;51.316;5.994;2022-12-17T14:28:23;0.30;99.90
49224;DHT22;35050;51.316;5.994;2022-12-17T14:30:50;0.20;99.90
49224;DHT22;35050;51.316;5.994;2022-12-17T14:35:59;0.30;99.90
49224;DHT22;35050;51.316;5.994;2022-12-17T14:38:26;0.10;99.90
49224;DHT22;35050;51.316;5.994;2022-12-17T14:40:52;0.30;99.90
49224;DHT22;35050;51.316;5.994;2022-12-17T14:43:25;0.20;99.90
49224;DHT22;35050;51.316;5.994;2022-12-17T14:45:58;0.20;99.90
49224;DHT22;35050;51.316;5.994;2022-12-17T14:48:43;0.30;99.90
49224;DHT22;35050;51.316;5.994;2022-12-17T14:54:06;0.30;99.90
49224;DHT22;35050;51.316;5.994;2022-12-17T14:56:32;0.40;99.90
49224;DHT22;35050;51.316;5.994;2022-12-17T14:58:57;0.20;99.90
49224;DHT22;35050;51.316;5.994;2022-12-17T15:01:23;-0.10;99.90
49224;DHT22;35050;51.316;5.994;2022-12-17T15:03:49;-0.10;99.90
49224;DHT22;35050;51.316;5.994;2022-12-17T15:06:17;-0.20;99.90
49224;DHT22;35050;51.316;5.994;2022-12-17T15:08:48;-0.30;99.90
49224;DHT22;35050;51.316;5.994;2022-12-17T15:11:18;-0.20;99.90
49224;DHT22;35050;51.316;5.994;2022-12-17T15:13:44;-0.20;99.90
49224;DHT22;35050;51.316;5.994;2022-12-17T15:16:10;-0.40;99.90
49224;DHT22;35050;51.316;5.994;2022-12-17T15:18:36;-0.30;99.90
49224;DHT22;35050;51.316;5.994;2022-12-17T15:21:02;-0.30;99.90
49224;DHT22;35050;51.316;5.994;2022-12-17T15:23:29;-0.20;99.90
49224;DHT22;35050;51.316;5.994;2022-12-17T15:25:54;-0.10;99.90
49224;DHT22;35050;51.316;5.994;2022-12-17T15:28:21;-0.50;99.90
49224;DHT22;35050;51.316;5.994;2022-12-17T15:30:47;-0.60;99.90
49224;DHT22;35050;51.316;5.994;2022-12-17T15:33:13;-0.70;99.90
49224;DHT22;35050;51.316;5.994;2022-12-17T15:35:39;-0.80;99.90
49224;DHT22;35050;51.316;5.994;2022-12-17T15:38:06;-0.90;99.90
49224;DHT22;35050;51.316;5.994;2022-12-17T15:40:32;-0.90;99.90
49224;DHT22;35050;51.316;5.994;2022-12-17T15:42:58;-0.60;99.90
49224;DHT22;35050;51.316;5.994;2022-12-17T15:45:47;-0.70;99.90
49224;DHT22;35050;51.316;5.994;2022-12-17T15:48:22;-0.60;99.90
49224;DHT22;35050;51.316;5.994;2022-12-17T15:50:48;-0.60;99.90
49224;DHT22;35050;51.316;5.994;2022-12-17T15:53:14;-0.50;99.90
49224;DHT22;35050;51.316;5.994;2022-12-17T15:55:40;-0.40;99.90
49224;DHT22;35050;51.316;5.994;2022-12-17T15:58:06;-0.30;99.90
49224;DHT22;35050;51.316;5.994;2022-12-17T16:00:32;-0.10;99.90
49224;DHT22;35050;51.316;5.994;2022-12-17T16:02:58;-0.30;99.90
49224;DHT22;35050;51.316;5.994;2022-12-17T16:05:24;-0.20;99.90
49224;DHT22;35050;51.316;5.994;2022-12-17T16:07:50;-0.10;99.90
49224;DHT22;35050;51.316;5.994;2022-12-17T16:10:16;-0.10;99.90
49224;DHT22;35050;51.316;5.994;2022-12-17T16:12:42;-0.10;99.90
49224;DHT22;35050;51.316;5.994;2022-12-17T16:15:12;-0.10;99.90
49224;DHT22;35050;51.316;5.994;2022-12-17T16:17:38;-0.10;99.90
49224;DHT22;35050;51.316;5.994;2022-12-17T16:20:05;-0.30;99.90
49224;DHT22;35050;51.316;5.994;2022-12-17T16:22:31;-0.30;99.90
49224;DHT22;35050;51.316;5.994;2022-12-17T16:24:56;-0.20;99.90
49224;DHT22;35050;51.316;5.994;2022-12-17T16:27:22;-0.20;99.90
49224;DHT22;35050;51.316;5.994;2022-12-17T16:29:48;-0.50;99.90
49224;DHT22;35050;51.316;5.994;2022-12-17T16:32:15;-0.40;99.90
49224;DHT22;35050;51.316;5.994;2022-12-17T16:34:41;-0.50;99.90
49224;DHT22;35050;51.316;5.994;2022-12-17T16:37:07;-0.40;99.90
49224;DHT22;35050;51.316;5.994;2022-12-17T16:39:32;-0.50;99.90
49224;DHT22;35050;51.316;5.994;2022-12-17T16:41:58;-0.30;99.90
49224;DHT22;35050;51.316;5.994;2022-12-17T16:44:24;-0.40;99.90
49224;DHT22;35050;51.316;5.994;2022-12-17T16:46:49;-0.30;99.90
49224;DHT22;35050;51.316;5.994;2022-12-17T16:49:21;-0.70;99.90
49224;DHT22;35050;51.316;5.994;2022-12-17T16:51:51;-0.80;99.90
49224;DHT22;35050;51.316;5.994;2022-12-17T16:54:20;-0.70;99.90
49224;DHT22;35050;51.316;5.994;2022-12-17T16:56:46;-0.70;99.90
49224;DHT22;35050;51.316;5.994;2022-12-17T16:59:13;-0.50;99.90
49224;DHT22;35050;51.316;5.994;2022-12-17T17:01:41;-0.80;99.90
49224;DHT22;35050;51.316;5.994;2022-12-17T17:04:09;-0.90;99.90
49224;DHT22;35050;51.316;5.994;2022-12-17T17:06:46;-1.10;99.90
49224;DHT22;35050;51.316;5.994;2022-12-17T17:09:14;-0.80;99.90
49224;DHT22;35050;51.316;5.994;2022-12-17T17:11:40;-0.70;99.90
49224;DHT22;35050;51.316;5.994;2022-12-17T17:14:07;-0.60;99.90
49224;DHT22;35050;51.316;5.994;2022-12-17T17:16:33;-0.70;99.90
49224;DHT22;35050;51.316;5.994;2022-12-17T17:18:59;-0.70;99.90
49224;DHT22;35050;51.316;5.994;2022-12-17T17:21:34;-0.60;99.90
49224;DHT22;35050;51.316;5.994;2022-12-17T17:24:05;-0.60;99.90
49224;DHT22;35050;51.316;5.994;2022-12-17T17:26:32;-0.60;99.90
49224;DHT22;35050;51.316;5.994;2022-12-17T17:28:59;-0.70;99.90
49224;DHT22;35050;51.316;5.994;2022-12-17T17:31:25;-0.60;99.90
49224;DHT22;35050;51.316;5.994;2022-12-17T17:33:51;-0.60;99.90
49224;DHT22;35050;51.316;5.994;2022-12-17T17:36:28;-0.60;99.90
49224;DHT22;35050;51.316;5.994;2022-12-17T17:38:56;-0.50;99.90
49224;DHT22;35050;51.316;5.994;2022-12-17T17:41:25;-0.40;99.90
49224;DHT22;35050;51.316;5.994;2022-12-17T17:44:03;-0.40;99.90
49224;DHT22;35050;51.316;5.994;2022-12-17T17:46:29;-0.40;99.90
49224;DHT22;35050;51.316;5.994;2022-12-17T17:48:59;-0.50;99.90
49224;DHT22;35050;51.316;5.994;2022-12-17T17:51:28;-0.70;99.90
49224;DHT22;35050;51.316;5.994;2022-12-17T17:53:54;-1.30;99.90
49224;DHT22;35050;51.316;5.994;2022-12-17T17:56:22;-1.20;99.90
49224;DHT22;35050;51.316;5.994;2022-12-17T17:58:55;-1.30;99.90
49224;DHT22;35050;51.316;5.994;2022-12-17T18:01:27;-1.40;99.90
49224;DHT22;35050;51.316;5.994;2022-12-17T18:03:57;-1.40;99.90
49224;DHT22;35050;51.316;5.994;2022-12-17T18:06:24;-1.30;99.90
49224;DHT22;35050;51.316;5.994;2022-12-17T18:08:50;-1.30;99.90
49224;DHT22;35050;51.316;5.994;2022-12-17T18:11:18;-1.20;99.90
49224;DHT22;35050;51.316;5.994;2022-12-17T18:13:45;-1.20;99.90
49224;DHT22;35050;51.316;5.994;2022-12-17T18:18:52;-1.20;99.90
49224;DHT22;35050;51.316;5.994;2022-12-17T18:21:19;-1.20;99.90
49224;DHT22;35050;51.316;5.994;2022-12-17T18:23:45;-1.40;99.90
49224;DHT22;35050;51.316;5.994;2022-12-17T18:26:18;-1.40;99.90
49224;DHT22;35050;51.316;5.994;2022-12-17T18:28:46;-1.20;99.90
49224;DHT22;35050;51.316;5.994;2022-12-17T18:31:20;-0.50;99.90